sensor_id;sensor_type;location;lat;lon;timestamp;P1;durP1;ratioP1;P2;durP2;ratioP2
5117;SDS011;2578;51.622;7.046;2023-08-30T00:01:32;6.60;;;6.10;;
5117;SDS011;2578;51.622;7.046;2023-08-30T00:03:58;6.30;;;5.80;;
5117;SDS011;2578;51.622;7.046;2023-08-30T00:06:24;7.00;;;6.07;;
5117;SDS011;2578;51.622;7.046;2023-08-30T00:08:50;6.10;;;5.60;;
5117;SDS011;2578;51.622;7.046;2023-08-30T00:11:15;7.00;;;6.10;;
5117;SDS011;2578;51.622;7.046;2023-08-30T00:13:41;5.90;;;5.40;;
5117;SDS011;2578;51.622;7.046;2023-08-30T00:16:07;6.10;;;5.60;;
5117;SDS011;2578;51.622;7.046;2023-08-30T00:18:33;6.00;;;5.50;;
5117;SDS011;2578;51.622;7.046;2023-08-30T00:20:58;5.67;;;5.17;;
5117;SDS011;2578;51.622;7.046;2023-08-30T00:23:24;6.20;;;5.70;;
5117;SDS011;2578;51.622;7.046;2023-08-30T00:25:50;7.23;;;6.63;;
5117;SDS011;2578;51.622;7.046;2023-08-30T00:28:15;6.97;;;6.33;;
5117;SDS011;2578;51.622;7.046;2023-08-30T00:30:41;6.70;;;6.10;;
5117;SDS011;2578;51.622;7.046;2023-08-30T00:33:07;6.30;;;5.80;;
5117;SDS011;2578;51.622;7.046;2023-08-30T00:35:33;7.40;;;6.80;;
5117;SDS011;2578;51.622;7.046;2023-08-30T00:37:58;7.10;;;6.50;;
5117;SDS011;2578;51.622;7.046;2023-08-30T00:40:24;8.00;;;7.40;;
5117;SDS011;2578;51.622;7.046;2023-08-30T00:42:50;7.00;;;6.40;;
5117;SDS011;2578;51.622;7.046;2023-08-30T00:45:15;7.70;;;7.10;;
5117;SDS011;2578;51.622;7.046;2023-08-30T00:47:41;7.60;;;7.00;;
5117;SDS011;2578;51.622;7.046;2023-08-30T00:50:07;7.90;;;7.30;;
5117;SDS011;2578;51.622;7.046;2023-08-30T00:52:34;8.20;;;7.60;;
5117;SDS011;2578;51.622;7.046;2023-08-30T00:55:00;8.07;;;7.47;;
5117;SDS011;2578;51.622;7.046;2023-08-30T00:57:26;8.30;;;7.70;;
5117;SDS011;2578;51.622;7.046;2023-08-30T00:59:51;9.90;;;9.13;;
5117;SDS011;2578;51.622;7.046;2023-08-30T01:02:19;8.47;;;7.87;;
5117;SDS011;2578;51.622;7.046;2023-08-30T01:04:45;9.53;;;8.83;;
5117;SDS011;2578;51.622;7.046;2023-08-30T01:07:11;9.23;;;8.53;;
5117;SDS011;2578;51.622;7.046;2023-08-30T01:09:36;9.97;;;9.07;;
5117;SDS011;2578;51.622;7.046;2023-08-30T01:14:58;8.80;;;8.20;;
5117;SDS011;2578;51.622;7.046;2023-08-30T01:17:31;9.63;;;8.93;;
5117;SDS011;2578;51.622;7.046;2023-08-30T01:20:04;10.00;;;9.10;;
5117;SDS011;2578;51.622;7.046;2023-08-30T01:25:33;9.80;;;8.80;;
5117;SDS011;2578;51.622;7.046;2023-08-30T01:28:05;8.43;;;7.83;;
5117;SDS011;2578;51.622;7.046;2023-08-30T01:30:32;8.20;;;7.60;;
5117;SDS011;2578;51.622;7.046;2023-08-30T01:33:00;8.20;;;7.60;;
5117;SDS011;2578;51.622;7.046;2023-08-30T01:35:27;8.00;;;7.40;;
5117;SDS011;2578;51.622;7.046;2023-08-30T01:37:57;8.40;;;7.80;;
5117;SDS011;2578;51.622;7.046;2023-08-30T01:40:25;8.40;;;7.80;;
5117;SDS011;2578;51.622;7.046;2023-08-30T01:42:53;8.57;;;7.97;;
5117;SDS011;2578;51.622;7.046;2023-08-30T01:45:20;8.90;;;8.30;;
5117;SDS011;2578;51.622;7.046;2023-08-30T01:47:48;9.30;;;8.63;;
5117;SDS011;2578;51.622;7.046;2023-08-30T01:50:17;10.23;;;9.43;;
5117;SDS011;2578;51.622;7.046;2023-08-30T01:52:42;8.70;;;8.10;;
5117;SDS011;2578;51.622;7.046;2023-08-30T01:55:08;8.80;;;8.20;;
5117;SDS011;2578;51.622;7.046;2023-08-30T01:57:37;8.80;;;8.20;;
5117;SDS011;2578;51.622;7.046;2023-08-30T02:00:03;8.90;;;8.30;;
5117;SDS011;2578;51.622;7.046;2023-08-30T02:02:30;8.80;;;8.20;;
5117;SDS011;2578;51.622;7.046;2023-08-30T02:04:55;8.50;;;7.90;;
5117;SDS011;2578;51.622;7.046;2023-08-30T02:07:25;8.50;;;7.90;;
5117;SDS011;2578;51.622;7.046;2023-08-30T02:10:08;8.70;;;8.10;;
5117;SDS011;2578;51.622;7.046;2023-08-30T02:12:40;9.43;;;8.70;;
5117;SDS011;2578;51.622;7.046;2023-08-30T02:15:14;9.83;;;9.03;;
5117;SDS011;2578;51.622;7.046;2023-08-30T02:17:42;8.70;;;8.10;;
5117;SDS011;2578;51.622;7.046;2023-08-30T02:20:08;12.00;;;10.90;;
5117;SDS011;2578;51.622;7.046;2023-08-30T02:22:34;9.07;;;8.47;;
5117;SDS011;2578;51.622;7.046;2023-08-30T02:25:00;9.63;;;8.77;;
5117;SDS011;2578;51.622;7.046;2023-08-30T02:27:30;8.60;;;8.00;;
5117;SDS011;2578;51.622;7.046;2023-08-30T02:29:56;8.50;;;7.90;;
5117;SDS011;2578;51.622;7.046;2023-08-30T02:32:21;9.17;;;8.37;;
5117;SDS011;2578;51.622;7.046;2023-08-30T02:34:49;11.50;;;10.40;;
5117;SDS011;2578;51.622;7.046;2023-08-30T02:37:16;8.37;;;7.73;;
5117;SDS011;2578;51.622;7.046;2023-08-30T02:39:42;9.50;;;8.70;;
5117;SDS011;2578;51.622;7.046;2023-08-30T02:42:08;9.63;;;8.93;;
5117;SDS011;2578;51.622;7.046;2023-08-30T02:44:33;9.80;;;9.00;;
5117;SDS011;2578;51.622;7.046;2023-08-30T02:46:59;7.90;;;7.30;;
5117;SDS011;2578;51.622;7.046;2023-08-30T02:49:24;8.00;;;7.40;;
5117;SDS011;2578;51.622;7.046;2023-08-30T02:51:51;7.80;;;7.20;;
5117;SDS011;2578;51.622;7.046;2023-08-30T02:54:17;7.80;;;7.20;;
5117;SDS011;2578;51.622;7.046;2023-08-30T02:56:42;7.80;;;7.20;;
5117;SDS011;2578;51.622;7.046;2023-08-30T02:59:09;7.97;;;7.37;;
5117;SDS011;2578;51.622;7.046;2023-08-30T03:01:35;9.10;;;8.50;;
5117;SDS011;2578;51.622;7.046;2023-08-30T03:04:01;9.30;;;8.60;;
5117;SDS011;2578;51.622;7.046;2023-08-30T03:06:29;9.20;;;8.50;;
5117;SDS011;2578;51.622;7.046;2023-08-30T03:08:57;9.27;;;8.60;;
5117;SDS011;2578;51.622;7.046;2023-08-30T03:11:23;10.20;;;9.50;;
5117;SDS011;2578;51.622;7.046;2023-08-30T03:13:49;10.23;;;9.53;;
5117;SDS011;2578;51.622;7.046;2023-08-30T03:16:15;10.00;;;9.30;;
5117;SDS011;2578;51.622;7.046;2023-08-30T03:18:42;10.83;;;10.13;;
5117;SDS011;2578;51.622;7.046;2023-08-30T03:21:09;10.60;;;9.90;;
5117;SDS011;2578;51.622;7.046;2023-08-30T03:23:35;10.70;;;10.00;;
5117;SDS011;2578;51.622;7.046;2023-08-30T03:26:08;10.90;;;10.20;;
5117;SDS011;2578;51.622;7.046;2023-08-30T03:28:34;12.70;;;11.63;;
5117;SDS011;2578;51.622;7.046;2023-08-30T03:31:01;11.27;;;10.47;;
5117;SDS011;2578;51.622;7.046;2023-08-30T03:33:26;11.30;;;10.50;;
5117;SDS011;2578;51.622;7.046;2023-08-30T03:35:52;10.13;;;9.43;;
5117;SDS011;2578;51.622;7.046;2023-08-30T03:38:17;9.40;;;8.70;;
5117;SDS011;2578;51.622;7.046;2023-08-30T03:40:44;10.40;;;9.50;;
5117;SDS011;2578;51.622;7.046;2023-08-30T03:43:09;10.93;;;10.13;;
5117;SDS011;2578;51.622;7.046;2023-08-30T03:45:35;9.90;;;9.20;;
5117;SDS011;2578;51.622;7.046;2023-08-30T03:48:02;10.47;;;9.67;;
5117;SDS011;2578;51.622;7.046;2023-08-30T03:50:28;10.90;;;9.90;;
5117;SDS011;2578;51.622;7.046;2023-08-30T03:52:54;10.23;;;9.30;;
5117;SDS011;2578;51.622;7.046;2023-08-30T03:55:20;9.57;;;8.77;;
5117;SDS011;2578;51.622;7.046;2023-08-30T03:57:46;9.90;;;9.20;;
5117;SDS011;2578;51.622;7.046;2023-08-30T04:00:11;10.73;;;9.73;;
5117;SDS011;2578;51.622;7.046;2023-08-30T04:02:37;15.03;;;10.23;;
5117;SDS011;2578;51.622;7.046;2023-08-30T04:05:03;16.20;;;11.20;;
5117;SDS011;2578;51.622;7.046;2023-08-30T04:07:33;9.23;;;8.53;;
5117;SDS011;2578;51.622;7.046;2023-08-30T04:09:58;15.37;;;10.93;;
5117;SDS011;2578;51.622;7.046;2023-08-30T04:12:24;15.93;;;10.77;;
5117;SDS011;2578;51.622;7.046;2023-08-30T04:14:50;11.83;;;10.83;;
5117;SDS011;2578;51.622;7.046;2023-08-30T04:17:15;10.23;;;9.43;;
5117;SDS011;2578;51.622;7.046;2023-08-30T04:19:41;12.70;;;11.80;;
5117;SDS011;2578;51.622;7.046;2023-08-30T04:22:06;8.80;;;8.20;;
5117;SDS011;2578;51.622;7.046;2023-08-30T04:24:32;13.67;;;9.07;;
5117;SDS011;2578;51.622;7.046;2023-08-30T04:26:57;9.50;;;8.80;;
5117;SDS011;2578;51.622;7.046;2023-08-30T04:29:23;9.00;;;8.40;;
5117;SDS011;2578;51.622;7.046;2023-08-30T04:31:49;9.60;;;8.90;;
5117;SDS011;2578;51.622;7.046;2023-08-30T04:34:14;9.27;;;8.60;;
5117;SDS011;2578;51.622;7.046;2023-08-30T04:36:41;9.83;;;9.13;;
5117;SDS011;2578;51.622;7.046;2023-08-30T04:39:07;15.47;;;14.47;;
5117;SDS011;2578;51.622;7.046;2023-08-30T04:41:32;9.70;;;9.00;;
5117;SDS011;2578;51.622;7.046;2023-08-30T04:43:58;10.53;;;9.83;;
5117;SDS011;2578;51.622;7.046;2023-08-30T04:46:24;11.73;;;10.83;;
5117;SDS011;2578;51.622;7.046;2023-08-30T04:48:49;13.77;;;12.77;;
5117;SDS011;2578;51.622;7.046;2023-08-30T04:51:15;12.30;;;11.07;;
5117;SDS011;2578;51.622;7.046;2023-08-30T04:53:41;12.53;;;11.23;;
5117;SDS011;2578;51.622;7.046;2023-08-30T04:56:11;12.83;;;11.53;;
5117;SDS011;2578;51.622;7.046;2023-08-30T04:58:42;11.73;;;10.87;;
5117;SDS011;2578;51.622;7.046;2023-08-30T05:01:08;10.87;;;10.00;;
5117;SDS011;2578;51.622;7.046;2023-08-30T05:03:34;10.67;;;9.87;;
5117;SDS011;2578;51.622;7.046;2023-08-30T05:06:00;17.20;;;13.73;;
5117;SDS011;2578;51.622;7.046;2023-08-30T05:08:26;18.70;;;10.93;;
5117;SDS011;2578;51.622;7.046;2023-08-30T05:10:54;12.10;;;11.10;;
5117;SDS011;2578;51.622;7.046;2023-08-30T05:13:20;9.17;;;8.47;;
5117;SDS011;2578;51.622;7.046;2023-08-30T05:15:46;9.30;;;8.50;;
5117;SDS011;2578;51.622;7.046;2023-08-30T05:18:11;12.23;;;11.00;;
5117;SDS011;2578;51.622;7.046;2023-08-30T05:20:37;8.03;;;7.37;;
5117;SDS011;2578;51.622;7.046;2023-08-30T05:23:02;8.60;;;7.90;;
5117;SDS011;2578;51.622;7.046;2023-08-30T05:25:28;9.87;;;8.57;;
5117;SDS011;2578;51.622;7.046;2023-08-30T05:27:54;8.40;;;7.80;;
5117;SDS011;2578;51.622;7.046;2023-08-30T05:30:19;8.57;;;7.77;;
5117;SDS011;2578;51.622;7.046;2023-08-30T05:32:45;8.80;;;7.90;;
5117;SDS011;2578;51.622;7.046;2023-08-30T05:35:11;9.60;;;8.60;;
5117;SDS011;2578;51.622;7.046;2023-08-30T05:37:37;44.40;;;10.40;;
5117;SDS011;2578;51.622;7.046;2023-08-30T05:40:02;13.07;;;10.20;;
5117;SDS011;2578;51.622;7.046;2023-08-30T05:42:29;10.37;;;9.27;;
5117;SDS011;2578;51.622;7.046;2023-08-30T05:44:54;10.57;;;9.53;;
5117;SDS011;2578;51.622;7.046;2023-08-30T05:47:21;10.07;;;8.90;;
5117;SDS011;2578;51.622;7.046;2023-08-30T05:49:46;15.80;;;7.50;;
5117;SDS011;2578;51.622;7.046;2023-08-30T05:52:12;8.13;;;7.43;;
5117;SDS011;2578;51.622;7.046;2023-08-30T05:54:40;7.47;;;6.77;;
5117;SDS011;2578;51.622;7.046;2023-08-30T05:57:07;8.93;;;7.57;;
5117;SDS011;2578;51.622;7.046;2023-08-30T05:59:33;6.53;;;5.93;;
5117;SDS011;2578;51.622;7.046;2023-08-30T06:02:00;5.10;;;4.60;;
5117;SDS011;2578;51.622;7.046;2023-08-30T06:04:26;4.90;;;4.37;;
5117;SDS011;2578;51.622;7.046;2023-08-30T06:06:52;6.60;;;4.97;;
5117;SDS011;2578;51.622;7.046;2023-08-30T06:09:17;4.83;;;4.00;;
5117;SDS011;2578;51.622;7.046;2023-08-30T06:11:43;6.00;;;4.90;;
5117;SDS011;2578;51.622;7.046;2023-08-30T06:14:08;9.37;;;5.20;;
5117;SDS011;2578;51.622;7.046;2023-08-30T06:16:34;7.40;;;5.73;;
5117;SDS011;2578;51.622;7.046;2023-08-30T06:19:00;9.40;;;7.10;;
5117;SDS011;2578;51.622;7.046;2023-08-30T06:21:25;10.30;;;6.77;;
5117;SDS011;2578;51.622;7.046;2023-08-30T06:23:51;17.83;;;9.43;;
5117;SDS011;2578;51.622;7.046;2023-08-30T06:26:17;8.63;;;7.83;;
5117;SDS011;2578;51.622;7.046;2023-08-30T06:28:43;15.20;;;11.93;;
5117;SDS011;2578;51.622;7.046;2023-08-30T06:31:09;16.97;;;9.80;;
5117;SDS011;2578;51.622;7.046;2023-08-30T06:33:35;9.90;;;9.00;;
5117;SDS011;2578;51.622;7.046;2023-08-30T06:36:01;10.40;;;9.30;;
5117;SDS011;2578;51.622;7.046;2023-08-30T06:38:27;12.33;;;8.60;;
5117;SDS011;2578;51.622;7.046;2023-08-30T06:40:52;14.57;;;9.27;;
5117;SDS011;2578;51.622;7.046;2023-08-30T06:43:18;9.37;;;8.53;;
5117;SDS011;2578;51.622;7.046;2023-08-30T06:45:44;10.43;;;8.67;;
5117;SDS011;2578;51.622;7.046;2023-08-30T06:48:11;11.93;;;9.40;;
5117;SDS011;2578;51.622;7.046;2023-08-30T06:50:36;8.97;;;8.20;;
5117;SDS011;2578;51.622;7.046;2023-08-30T06:53:02;9.30;;;8.40;;
5117;SDS011;2578;51.622;7.046;2023-08-30T06:55:28;14.03;;;11.50;;
5117;SDS011;2578;51.622;7.046;2023-08-30T06:57:54;10.43;;;8.87;;
5117;SDS011;2578;51.622;7.046;2023-08-30T07:00:20;9.63;;;8.83;;
5117;SDS011;2578;51.622;7.046;2023-08-30T07:02:46;9.90;;;9.00;;
5117;SDS011;2578;51.622;7.046;2023-08-30T07:05:12;14.47;;;10.30;;
5117;SDS011;2578;51.622;7.046;2023-08-30T07:07:38;9.30;;;8.37;;
5117;SDS011;2578;51.622;7.046;2023-08-30T07:10:04;10.90;;;9.90;;
5117;SDS011;2578;51.622;7.046;2023-08-30T07:12:30;11.30;;;10.17;;
5117;SDS011;2578;51.622;7.046;2023-08-30T07:14:56;11.50;;;10.30;;
5117;SDS011;2578;51.622;7.046;2023-08-30T07:17:21;13.97;;;11.03;;
5117;SDS011;2578;51.622;7.046;2023-08-30T07:19:48;11.10;;;9.97;;
5117;SDS011;2578;51.622;7.046;2023-08-30T07:22:14;11.23;;;10.07;;
5117;SDS011;2578;51.622;7.046;2023-08-30T07:24:41;11.57;;;10.40;;
5117;SDS011;2578;51.622;7.046;2023-08-30T07:27:08;11.87;;;10.00;;
5117;SDS011;2578;51.622;7.046;2023-08-30T07:29:33;9.07;;;8.37;;
5117;SDS011;2578;51.622;7.046;2023-08-30T07:31:59;10.70;;;9.80;;
5117;SDS011;2578;51.622;7.046;2023-08-30T07:34:24;11.90;;;10.70;;
5117;SDS011;2578;51.622;7.046;2023-08-30T07:36:50;15.40;;;13.83;;
5117;SDS011;2578;51.622;7.046;2023-08-30T07:39:18;14.40;;;13.00;;
5117;SDS011;2578;51.622;7.046;2023-08-30T07:41:44;12.17;;;11.20;;
5117;SDS011;2578;51.622;7.046;2023-08-30T07:44:09;16.43;;;14.77;;
5117;SDS011;2578;51.622;7.046;2023-08-30T07:46:35;13.10;;;12.10;;
5117;SDS011;2578;51.622;7.046;2023-08-30T07:49:01;13.87;;;12.60;;
5117;SDS011;2578;51.622;7.046;2023-08-30T07:51:27;14.93;;;13.53;;
5117;SDS011;2578;51.622;7.046;2023-08-30T07:53:53;15.57;;;14.20;;
5117;SDS011;2578;51.622;7.046;2023-08-30T07:56:18;40.80;;;16.40;;
5117;SDS011;2578;51.622;7.046;2023-08-30T07:58:44;15.50;;;14.40;;
5117;SDS011;2578;51.622;7.046;2023-08-30T08:01:09;18.47;;;15.33;;
5117;SDS011;2578;51.622;7.046;2023-08-30T08:03:35;18.20;;;16.50;;
5117;SDS011;2578;51.622;7.046;2023-08-30T08:06:01;17.47;;;16.07;;
5117;SDS011;2578;51.622;7.046;2023-08-30T08:08:26;16.70;;;15.40;;
5117;SDS011;2578;51.622;7.046;2023-08-30T08:10:52;19.93;;;18.03;;
5117;SDS011;2578;51.622;7.046;2023-08-30T08:13:17;17.07;;;15.87;;
5117;SDS011;2578;51.622;7.046;2023-08-30T08:15:43;16.53;;;15.43;;
5117;SDS011;2578;51.622;7.046;2023-08-30T08:18:09;17.10;;;15.90;;
5117;SDS011;2578;51.622;7.046;2023-08-30T08:20:35;18.57;;;17.07;;
5117;SDS011;2578;51.622;7.046;2023-08-30T08:23:01;18.40;;;17.10;;
5117;SDS011;2578;51.622;7.046;2023-08-30T08:25:28;19.20;;;17.60;;
5117;SDS011;2578;51.622;7.046;2023-08-30T08:27:53;19.43;;;17.93;;
5117;SDS011;2578;51.622;7.046;2023-08-30T08:30:19;18.67;;;17.30;;
5117;SDS011;2578;51.622;7.046;2023-08-30T08:32:48;18.90;;;17.50;;
5117;SDS011;2578;51.622;7.046;2023-08-30T08:35:13;17.90;;;16.60;;
5117;SDS011;2578;51.622;7.046;2023-08-30T08:37:39;17.90;;;16.60;;
5117;SDS011;2578;51.622;7.046;2023-08-30T08:40:05;18.47;;;17.17;;
5117;SDS011;2578;51.622;7.046;2023-08-30T08:42:33;18.70;;;17.40;;
5117;SDS011;2578;51.622;7.046;2023-08-30T08:45:00;19.57;;;18.17;;
5117;SDS011;2578;51.622;7.046;2023-08-30T08:47:27;19.20;;;17.80;;
5117;SDS011;2578;51.622;7.046;2023-08-30T08:49:55;19.13;;;17.73;;
5117;SDS011;2578;51.622;7.046;2023-08-30T08:52:21;19.70;;;18.20;;
5117;SDS011;2578;51.622;7.046;2023-08-30T08:54:49;19.33;;;17.93;;
5117;SDS011;2578;51.622;7.046;2023-08-30T08:57:15;18.50;;;17.10;;
5117;SDS011;2578;51.622;7.046;2023-08-30T08:59:41;19.10;;;17.70;;
5117;SDS011;2578;51.622;7.046;2023-08-30T09:02:07;20.47;;;18.97;;
5117;SDS011;2578;51.622;7.046;2023-08-30T09:04:37;21.90;;;20.23;;
5117;SDS011;2578;51.622;7.046;2023-08-30T09:07:04;20.30;;;18.80;;
5117;SDS011;2578;51.622;7.046;2023-08-30T09:09:29;21.30;;;19.70;;
5117;SDS011;2578;51.622;7.046;2023-08-30T09:11:55;20.80;;;19.20;;
5117;SDS011;2578;51.622;7.046;2023-08-30T09:14:21;20.57;;;18.80;;
5117;SDS011;2578;51.622;7.046;2023-08-30T09:17:00;18.40;;;17.10;;
5117;SDS011;2578;51.622;7.046;2023-08-30T09:19:27;17.87;;;16.57;;
5117;SDS011;2578;51.622;7.046;2023-08-30T09:21:53;19.40;;;17.90;;
5117;SDS011;2578;51.622;7.046;2023-08-30T09:24:19;20.40;;;18.63;;
5117;SDS011;2578;51.622;7.046;2023-08-30T09:26:49;17.90;;;16.60;;
5117;SDS011;2578;51.622;7.046;2023-08-30T09:29:19;17.00;;;15.80;;
5117;SDS011;2578;51.622;7.046;2023-08-30T09:31:46;16.90;;;15.70;;
5117;SDS011;2578;51.622;7.046;2023-08-30T09:34:16;16.30;;;15.20;;
5117;SDS011;2578;51.622;7.046;2023-08-30T09:36:42;16.00;;;14.90;;
5117;SDS011;2578;51.622;7.046;2023-08-30T09:39:11;14.03;;;13.07;;
5117;SDS011;2578;51.622;7.046;2023-08-30T09:41:44;15.23;;;14.20;;
5117;SDS011;2578;51.622;7.046;2023-08-30T09:44:11;12.87;;;12.03;;
5117;SDS011;2578;51.622;7.046;2023-08-30T09:46:44;13.20;;;12.40;;
5117;SDS011;2578;51.622;7.046;2023-08-30T09:49:24;13.40;;;12.60;;
5117;SDS011;2578;51.622;7.046;2023-08-30T09:51:51;12.30;;;11.50;;
5117;SDS011;2578;51.622;7.046;2023-08-30T09:54:19;12.40;;;11.60;;
5117;SDS011;2578;51.622;7.046;2023-08-30T09:56:48;12.77;;;11.97;;
5117;SDS011;2578;51.622;7.046;2023-08-30T09:59:18;12.50;;;11.70;;
5117;SDS011;2578;51.622;7.046;2023-08-30T10:01:46;12.03;;;11.23;;
5117;SDS011;2578;51.622;7.046;2023-08-30T10:04:15;12.77;;;11.77;;
5117;SDS011;2578;51.622;7.046;2023-08-30T10:06:43;12.87;;;11.87;;
5117;SDS011;2578;51.622;7.046;2023-08-30T10:09:10;13.80;;;12.80;;
5117;SDS011;2578;51.622;7.046;2023-08-30T10:11:36;12.03;;;11.13;;
5117;SDS011;2578;51.622;7.046;2023-08-30T10:14:03;14.23;;;13.33;;
5117;SDS011;2578;51.622;7.046;2023-08-30T10:16:30;14.53;;;13.53;;
5117;SDS011;2578;51.622;7.046;2023-08-30T10:19:11;12.83;;;12.03;;
5117;SDS011;2578;51.622;7.046;2023-08-30T10:21:42;13.10;;;12.30;;
5117;SDS011;2578;51.622;7.046;2023-08-30T10:24:09;14.13;;;13.23;;
5117;SDS011;2578;51.622;7.046;2023-08-30T10:26:41;13.40;;;12.60;;
5117;SDS011;2578;51.622;7.046;2023-08-30T10:29:09;18.83;;;17.53;;
5117;SDS011;2578;51.622;7.046;2023-08-30T10:31:37;17.23;;;16.10;;
5117;SDS011;2578;51.622;7.046;2023-08-30T10:34:11;21.40;;;19.63;;
5117;SDS011;2578;51.622;7.046;2023-08-30T10:36:41;18.90;;;17.60;;
5117;SDS011;2578;51.622;7.046;2023-08-30T10:39:13;18.37;;;17.17;;
5117;SDS011;2578;51.622;7.046;2023-08-30T10:41:55;17.20;;;16.10;;
5117;SDS011;2578;51.622;7.046;2023-08-30T10:44:22;17.60;;;16.50;;
5117;SDS011;2578;51.622;7.046;2023-08-30T10:46:55;17.20;;;16.10;;
5117;SDS011;2578;51.622;7.046;2023-08-30T10:49:21;20.37;;;18.87;;
5117;SDS011;2578;51.622;7.046;2023-08-30T10:51:56;18.37;;;17.17;;
5117;SDS011;2578;51.622;7.046;2023-08-30T10:54:22;21.10;;;19.70;;
5117;SDS011;2578;51.622;7.046;2023-08-30T10:56:54;18.73;;;17.53;;
5117;SDS011;2578;51.622;7.046;2023-08-30T10:59:22;19.37;;;17.77;;
5117;SDS011;2578;51.622;7.046;2023-08-30T11:01:49;18.70;;;17.50;;
5117;SDS011;2578;51.622;7.046;2023-08-30T11:04:17;19.63;;;18.23;;
5117;SDS011;2578;51.622;7.046;2023-08-30T11:06:43;18.10;;;17.00;;
5117;SDS011;2578;51.622;7.046;2023-08-30T11:09:17;22.50;;;20.63;;
5117;SDS011;2578;51.622;7.046;2023-08-30T11:11:46;22.80;;;21.30;;
5117;SDS011;2578;51.622;7.046;2023-08-30T11:14:13;23.60;;;22.10;;
5117;SDS011;2578;51.622;7.046;2023-08-30T11:16:39;21.60;;;20.30;;
5117;SDS011;2578;51.622;7.046;2023-08-30T11:19:05;21.67;;;20.27;;
5117;SDS011;2578;51.622;7.046;2023-08-30T11:21:33;22.53;;;21.13;;
5117;SDS011;2578;51.622;7.046;2023-08-30T11:24:02;24.23;;;22.53;;
5117;SDS011;2578;51.622;7.046;2023-08-30T11:26:28;23.47;;;21.77;;
5117;SDS011;2578;51.622;7.046;2023-08-30T11:28:54;22.20;;;20.80;;
5117;SDS011;2578;51.622;7.046;2023-08-30T11:31:24;20.50;;;19.20;;
5117;SDS011;2578;51.622;7.046;2023-08-30T11:36:26;20.77;;;19.07;;
5117;SDS011;2578;51.622;7.046;2023-08-30T11:38:53;23.93;;;22.00;;
5117;SDS011;2578;51.622;7.046;2023-08-30T11:41:22;19.80;;;18.40;;
5117;SDS011;2578;51.622;7.046;2023-08-30T11:43:49;19.80;;;18.47;;
5117;SDS011;2578;51.622;7.046;2023-08-30T11:46:18;20.67;;;19.27;;
5117;SDS011;2578;51.622;7.046;2023-08-30T11:48:44;23.93;;;18.40;;
5117;SDS011;2578;51.622;7.046;2023-08-30T11:51:12;19.20;;;17.90;;
5117;SDS011;2578;51.622;7.046;2023-08-30T11:53:41;19.13;;;17.73;;
5117;SDS011;2578;51.622;7.046;2023-08-30T11:56:07;18.60;;;17.30;;
5117;SDS011;2578;51.622;7.046;2023-08-30T11:58:34;19.97;;;18.47;;
5117;SDS011;2578;51.622;7.046;2023-08-30T12:01:01;19.30;;;18.10;;
5117;SDS011;2578;51.622;7.046;2023-08-30T12:03:28;21.60;;;20.00;;
5117;SDS011;2578;51.622;7.046;2023-08-30T12:05:54;20.67;;;19.27;;
5117;SDS011;2578;51.622;7.046;2023-08-30T12:08:24;19.70;;;18.20;;
5117;SDS011;2578;51.622;7.046;2023-08-30T12:10:54;20.63;;;19.07;;
5117;SDS011;2578;51.622;7.046;2023-08-30T12:13:21;22.07;;;20.20;;
5117;SDS011;2578;51.622;7.046;2023-08-30T12:15:51;18.70;;;17.30;;
5117;SDS011;2578;51.622;7.046;2023-08-30T12:18:20;18.70;;;17.30;;
5117;SDS011;2578;51.622;7.046;2023-08-30T12:20:55;18.90;;;17.50;;
5117;SDS011;2578;51.622;7.046;2023-08-30T12:23:23;19.37;;;17.87;;
5117;SDS011;2578;51.622;7.046;2023-08-30T12:25:59;18.50;;;17.10;;
5117;SDS011;2578;51.622;7.046;2023-08-30T12:28:36;21.80;;;19.90;;
5117;SDS011;2578;51.622;7.046;2023-08-30T12:31:02;18.50;;;17.20;;
5117;SDS011;2578;51.622;7.046;2023-08-30T12:33:34;20.07;;;18.57;;
5117;SDS011;2578;51.622;7.046;2023-08-30T12:36:00;21.00;;;19.40;;
5117;SDS011;2578;51.622;7.046;2023-08-30T12:38:26;20.10;;;18.70;;
5117;SDS011;2578;51.622;7.046;2023-08-30T12:40:53;21.27;;;19.57;;
5117;SDS011;2578;51.622;7.046;2023-08-30T12:43:19;20.00;;;18.60;;
5117;SDS011;2578;51.622;7.046;2023-08-30T12:45:46;20.60;;;19.10;;
5117;SDS011;2578;51.622;7.046;2023-08-30T12:48:16;20.50;;;19.00;;
5117;SDS011;2578;51.622;7.046;2023-08-30T12:50:43;23.50;;;21.40;;
5117;SDS011;2578;51.622;7.046;2023-08-30T12:53:10;20.60;;;19.10;;
5117;SDS011;2578;51.622;7.046;2023-08-30T12:55:36;23.40;;;21.80;;
5117;SDS011;2578;51.622;7.046;2023-08-30T12:58:05;22.57;;;21.00;;
5117;SDS011;2578;51.622;7.046;2023-08-30T13:00:35;22.20;;;20.70;;
5117;SDS011;2578;51.622;7.046;2023-08-30T13:03:01;24.20;;;22.50;;
5117;SDS011;2578;51.622;7.046;2023-08-30T13:05:28;24.90;;;23.10;;
5117;SDS011;2578;51.622;7.046;2023-08-30T13:07:55;23.53;;;21.83;;
5117;SDS011;2578;51.622;7.046;2023-08-30T13:10:21;24.73;;;22.73;;
5117;SDS011;2578;51.622;7.046;2023-08-30T13:12:47;23.90;;;22.10;;
5117;SDS011;2578;51.622;7.046;2023-08-30T13:15:12;25.70;;;23.80;;
5117;SDS011;2578;51.622;7.046;2023-08-30T13:17:38;25.30;;;23.10;;
5117;SDS011;2578;51.622;7.046;2023-08-30T13:20:04;23.20;;;21.60;;
5117;SDS011;2578;51.622;7.046;2023-08-30T13:22:30;24.10;;;22.30;;
5117;SDS011;2578;51.622;7.046;2023-08-30T13:24:55;23.47;;;21.77;;
5117;SDS011;2578;51.622;7.046;2023-08-30T13:27:21;22.50;;;20.90;;
5117;SDS011;2578;51.622;7.046;2023-08-30T13:29:47;23.53;;;21.83;;
5117;SDS011;2578;51.622;7.046;2023-08-30T13:32:13;22.37;;;20.77;;
5117;SDS011;2578;51.622;7.046;2023-08-30T13:34:39;22.63;;;21.03;;
5117;SDS011;2578;51.622;7.046;2023-08-30T13:37:04;22.27;;;20.73;;
5117;SDS011;2578;51.622;7.046;2023-08-30T13:39:30;21.53;;;20.03;;
5117;SDS011;2578;51.622;7.046;2023-08-30T13:41:56;22.50;;;21.00;;
5117;SDS011;2578;51.622;7.046;2023-08-30T13:44:22;24.43;;;22.50;;
5117;SDS011;2578;51.622;7.046;2023-08-30T13:46:49;22.90;;;21.30;;
5117;SDS011;2578;51.622;7.046;2023-08-30T13:49:15;21.63;;;20.13;;
5117;SDS011;2578;51.622;7.046;2023-08-30T13:51:41;21.77;;;20.27;;
5117;SDS011;2578;51.622;7.046;2023-08-30T13:54:07;20.73;;;19.33;;
5117;SDS011;2578;51.622;7.046;2023-08-30T13:56:33;24.77;;;23.03;;
5117;SDS011;2578;51.622;7.046;2023-08-30T13:58:58;21.37;;;19.73;;
5117;SDS011;2578;51.622;7.046;2023-08-30T14:01:24;21.30;;;19.70;;
5117;SDS011;2578;51.622;7.046;2023-08-30T14:03:50;19.63;;;18.23;;
5117;SDS011;2578;51.622;7.046;2023-08-30T14:06:15;19.40;;;18.00;;
5117;SDS011;2578;51.622;7.046;2023-08-30T14:08:42;19.37;;;18.00;;
5117;SDS011;2578;51.622;7.046;2023-08-30T14:11:08;19.20;;;17.80;;
5117;SDS011;2578;51.622;7.046;2023-08-30T14:13:33;19.60;;;18.20;;
5117;SDS011;2578;51.622;7.046;2023-08-30T14:16:02;19.00;;;17.60;;
5117;SDS011;2578;51.622;7.046;2023-08-30T14:18:28;26.30;;;20.13;;
5117;SDS011;2578;51.622;7.046;2023-08-30T14:20:58;22.07;;;20.27;;
5117;SDS011;2578;51.622;7.046;2023-08-30T14:23:27;18.73;;;17.33;;
5117;SDS011;2578;51.622;7.046;2023-08-30T14:26:00;18.70;;;17.40;;
5117;SDS011;2578;51.622;7.046;2023-08-30T14:28:37;20.30;;;18.80;;
5117;SDS011;2578;51.622;7.046;2023-08-30T14:31:08;20.57;;;18.97;;
5117;SDS011;2578;51.622;7.046;2023-08-30T14:33:35;21.20;;;19.70;;
5117;SDS011;2578;51.622;7.046;2023-08-30T14:36:01;21.10;;;19.47;;
5117;SDS011;2578;51.622;7.046;2023-08-30T14:38:27;20.50;;;19.00;;
5117;SDS011;2578;51.622;7.046;2023-08-30T14:41:00;20.60;;;19.10;;
5117;SDS011;2578;51.622;7.046;2023-08-30T14:43:26;23.20;;;21.60;;
5117;SDS011;2578;51.622;7.046;2023-08-30T14:45:58;20.60;;;19.10;;
5117;SDS011;2578;51.622;7.046;2023-08-30T14:48:25;20.00;;;18.60;;
5117;SDS011;2578;51.622;7.046;2023-08-30T14:50:50;19.60;;;18.20;;
5117;SDS011;2578;51.622;7.046;2023-08-30T14:53:16;19.20;;;17.80;;
5117;SDS011;2578;51.622;7.046;2023-08-30T14:55:44;19.07;;;17.67;;
5117;SDS011;2578;51.622;7.046;2023-08-30T14:58:10;19.20;;;17.80;;
5117;SDS011;2578;51.622;7.046;2023-08-30T15:00:35;18.87;;;17.47;;
5117;SDS011;2578;51.622;7.046;2023-08-30T15:03:01;18.53;;;17.23;;
5117;SDS011;2578;51.622;7.046;2023-08-30T15:05:26;20.50;;;18.70;;